Kasagimaru — JJ3905 — position and weather

sailwx.info

Track history (hours):
 
Tides and Currents Weather Stations Pressure Air Temp Water Temp Dewpoint Dewpoint Depression Visibility Wind Speed Wind Dir Waves Ship Positions

Kasagimaru

Last reported at 2016-Dec-05 13:33 UTC. Time now 2016-Dec-05 14:33 UTC.
Position N 34°13' E 135°09'.

Length 42 m; draft 3.5 m.

Type: Tug. MMSI: 431300268.

Date/timePositionNaut miles runAvg speedWind from/ knotsBaromVisibWave heightAir tempDewpointWater temp
2016-Dec-05 13:33N 34°13' E 135°09'0 0.0
2016-Dec-05 12:33N 34°13' E 135°09'0 0.0
2016-Dec-05 11:33N 34°13' E 135°09'0 0.0
2016-Dec-05 10:33N 34°13' E 135°09'0 0.0
2016-Dec-05 09:33N 34°13' E 135°09'0 0.0
2016-Dec-05 08:33N 34°13' E 135°09'0 0.0
2016-Dec-05 07:33N 34°13' E 135°09'0 0.0
2016-Dec-05 06:33N 34°13' E 135°09'0 0.0
2016-Dec-05 05:33N 34°13' E 135°09'0 0.0
2016-Dec-05 04:33N 34°13' E 135°09'0 0.0
2016-Dec-05 03:33N 34°13' E 135°09'0 0.0
2016-Dec-05 02:33N 34°13' E 135°09'0 0.0
2016-Dec-05 01:33N 34°13' E 135°09'0 0.0
2016-Dec-05 00:33N 34°13' E 135°09'0 0.0
2016-Dec-04 23:33N 34°13' E 135°09'0 0.0
2016-Dec-04 22:33N 34°13' E 135°09'0 0.0
2016-Dec-04 21:33N 34°13' E 135°09'0 0.0
2016-Dec-04 20:33N 34°13' E 135°09'0 0.0
2016-Dec-04 19:33N 34°13' E 135°09'0 0.0
2016-Dec-04 18:33N 34°13' E 135°09'0 0.0
2016-Dec-04 17:33N 34°13' E 135°09'0 0.0
2016-Dec-04 16:33N 34°13' E 135°09'0 0.0
2016-Dec-04 15:33N 34°13' E 135°09'0 0.0
2016-Dec-04 14:33N 34°13' E 135°09'0 0.0
2016-Dec-04 13:33N 34°13' E 135°09'0 0.0
2016-Dec-04 12:33N 34°13' E 135°09'0 0.0
2016-Dec-04 11:33N 34°13' E 135°09'0 0.1
2016-Dec-04 10:33N 34°13' E 135°09'15 7.6
2016-Dec-04 08:32N 34°28' E 135°04'9 8.8
2016-Dec-04 07:33N 34°36' E 135°02'2 0.1
2016-Dec-03 01:33N 34°36' E 135°04'6 6.1
2016-Dec-03 00:33N 34°31' E 135°07'1711.4
2016-Dec-02 23:06N 34°15' E 134°59'4 7.2
2016-Dec-02 22:30N 34°11' E 135°01'1111.4
2016-Dec-02 21:32N 34°21' E 135°06'1212.2
2016-Dec-02 20:33N 34°28' E 135°18'9 8.8
2016-Dec-02 19:33N 34°33' E 135°27'0 0.0
2016-Dec-02 18:33N 34°33' E 135°27'0 0.0
2016-Dec-02 17:33N 34°33' E 135°27'0 0.0
2016-Dec-02 16:33N 34°33' E 135°27'0 0.0
2016-Dec-02 15:33N 34°33' E 135°27'0 0.0
2016-Dec-02 14:33N 34°33' E 135°27'0 0.0
2016-Dec-02 13:33N 34°33' E 135°27'0 0.0
2016-Dec-02 09:15N 34°33' E 135°27'0 0.0
2016-Dec-02 08:30N 34°33' E 135°27'0 0.0
2016-Dec-02 07:33N 34°33' E 135°27'0 0.0
2016-Dec-02 06:33N 34°33' E 135°27'0 0.0
2016-Dec-02 05:33N 34°33' E 135°27'0 0.0
2016-Dec-02 04:33N 34°33' E 135°27'0 0.0
2016-Dec-02 03:29N 34°33' E 135°27'0 0.0
2016-Dec-02 02:33N 34°33' E 135°27'0 0.0
2016-Dec-02 01:33N 34°33' E 135°27'0 0.0
2016-Dec-02 00:21N 34°33' E 135°27'0 0.0
2016-Dec-01 23:33N 34°33' E 135°27'0 0.0
2016-Dec-01 22:33N 34°33' E 135°27'0 0.0
2016-Dec-01 21:33N 34°33' E 135°27'0 0.0
2016-Dec-01 20:33N 34°33' E 135°27'0 0.0
2016-Dec-01 19:33N 34°33' E 135°27'0 0.0
2016-Dec-01 18:33N 34°33' E 135°27'0 0.0
2016-Dec-01 17:33N 34°33' E 135°27'0 0.0
2016-Dec-01 16:33N 34°33' E 135°27'0 0.0
2016-Dec-01 15:33N 34°33' E 135°27'0 0.0
2016-Dec-01 14:32N 34°33' E 135°27'0 0.0
2016-Dec-01 13:33N 34°33' E 135°27'0 0.0
2016-Dec-01 12:33N 34°33' E 135°27'0 0.0
2016-Dec-01 11:33N 34°33' E 135°27'0 0.0
2016-Dec-01 10:18N 34°33' E 135°27'0 0.0
2016-Dec-01 09:30N 34°33' E 135°27'0 0.2
2016-Dec-01 08:26N 34°33' E 135°27'2 0.6
2016-Dec-01 04:32N 34°31' E 135°25'2 2.1
2016-Dec-01 03:32N 34°33' E 135°23'3 1.3
2016-Dec-01 01:33N 34°33' E 135°27'0 0.0
2016-Dec-01 00:33N 34°33' E 135°27'0 0.0
2016-Nov-30 23:32N 34°33' E 135°27'0 0.0
2016-Nov-30 22:33N 34°33' E 135°27'0 0.0
2016-Nov-30 21:30N 34°33' E 135°27'0 0.0
2016-Nov-30 11:07N 34°33' E 135°27'2 4.1
2016-Nov-30 10:30N 34°33' E 135°24'2511.5
2016-Nov-30 08:18N 34°15' E 135°02'6 0.8
2016-Nov-30 01:11N 34°09' E 135°01'711.4
2016-Nov-30 00:33N 34°13' E 135°08'1 0.5
2016-Nov-29 23:33N 34°13' E 135°09'0 0.0
2016-Nov-29 22:33N 34°13' E 135°09'0 0.0
2016-Nov-29 21:34N 34°13' E 135°09'0 0.0
2016-Nov-29 20:33N 34°13' E 135°09'0 0.0
2016-Nov-29 19:33N 34°13' E 135°09'0 0.0
2016-Nov-29 18:33N 34°13' E 135°09'0 0.0
2016-Nov-29 17:33N 34°13' E 135°09'0 0.0
2016-Nov-29 16:33N 34°13' E 135°09'0 0.0
2016-Nov-29 15:33N 34°13' E 135°09'0 0.0
2016-Nov-29 14:33N 34°13' E 135°09'0 0.0
2016-Nov-29 13:33N 34°13' E 135°09'0 0.0
2016-Nov-29 12:33N 34°13' E 135°09'0 0.0
2016-Nov-29 11:33N 34°13' E 135°09'0 0.0
2016-Nov-29 10:33N 34°13' E 135°09'0 0.0
2016-Nov-29 09:33N 34°13' E 135°09'2 1.7
2016-Nov-29 08:33N 34°13' E 135°07'15 9.9
2016-Nov-29 07:06N 34°27' E 135°04'712.3
2016-Nov-29 06:33N 34°34' E 135°06'9 0.3
2016-Nov-28 03:27N 34°37' E 134°56'9 9.6
2016-Nov-28 02:33N 34°35' E 135°06'20 9.3
2016-Nov-28 00:23N 34°15' E 134°59'5 6.3
2016-Nov-27 23:33N 34°10' E 135°00'9 9.2
2016-Nov-27 22:33N 34°19' E 135°04'1211.7
2016-Nov-27 21:32N 34°25' E 135°16'1111.5
2016-Nov-27 20:33N 34°33' E 135°26'0 0.4
2016-Nov-27 19:33N 34°33' E 135°27'0 0.0
2016-Nov-27 11:28N 34°33' E 135°27'0 0.0
2016-Nov-27 10:32N 34°33' E 135°27'0 0.0
2016-Nov-27 09:33N 34°33' E 135°27'0 0.0
2016-Nov-27 08:33N 34°33' E 135°27'0 0.0
2016-Nov-27 07:33N 34°33' E 135°27'0 0.0
2016-Nov-27 06:33N 34°33' E 135°27'1 0.6
2016-Nov-27 05:33N 34°33' E 135°26'3 3.1
2016-Nov-27 04:33N 34°32' E 135°23'1 0.6
2016-Nov-27 03:33N 34°32' E 135°23'3 1.5
2016-Nov-27 01:31N 34°33' E 135°27'0 0.0
2016-Nov-26 23:13N 34°33' E 135°27'0 0.0
2016-Nov-26 22:33N 34°33' E 135°27'0 0.0
2016-Nov-26 21:32N 34°33' E 135°27'0 0.0
2016-Nov-26 20:31N 34°33' E 135°27'0 0.0
2016-Nov-26 19:33N 34°33' E 135°27'0 0.0
2016-Nov-26 18:33N 34°33' E 135°27'0 0.0
2016-Nov-26 17:32N 34°33' E 135°27'0 0.0
2016-Nov-26 16:33N 34°33' E 135°27'0 0.0
2016-Nov-26 15:26N 34°33' E 135°27'0 0.0
2016-Nov-26 14:20N 34°33' E 135°27'0 0.1
2016-Nov-26 06:33N 34°33' E 135°26'0 0.1
2016-Nov-26 05:33N 34°33' E 135°26'3 3.1
2016-Nov-26 04:33N 34°33' E 135°22'4 3.7
2016-Nov-26 03:33N 34°34' E 135°18'7 0.8
2016-Nov-25 18:27N 34°33' E 135°27'0 0.0
2016-Nov-25 17:33N 34°33' E 135°27'0 0.0
2016-Nov-25 16:33N 34°33' E 135°27'0 0.0
2016-Nov-25 15:32N 34°33' E 135°27'0 0.0
2016-Nov-25 14:33N 34°33' E 135°27'  
Track history (hours):
 
Tides and Currents Weather Stations Pressure Air Temp Water Temp Dewpoint Dewpoint Depression Visibility Wind Speed Wind Dir Waves Ship Positions

Kasagimaru

Last reported at 2016-Dec-05 13:33 UTC. Time now 2016-Dec-05 14:33 UTC.
Position N 34°13' E 135°09'.

Length 42 m; draft 3.5 m.

Type: Tug. MMSI: 431300268.

Date/timePositionNaut miles runAvg speedWind from/ knotsBaromVisibWave heightAir tempDewpointWater temp
2016-Dec-05 13:33N 34°13' E 135°09'0 0.0
2016-Dec-05 12:33N 34°13' E 135°09'0 0.0
2016-Dec-05 11:33N 34°13' E 135°09'0 0.0
2016-Dec-05 10:33N 34°13' E 135°09'0 0.0
2016-Dec-05 09:33N 34°13' E 135°09'0 0.0
2016-Dec-05 08:33N 34°13' E 135°09'0 0.0
2016-Dec-05 07:33N 34°13' E 135°09'0 0.0
2016-Dec-05 06:33N 34°13' E 135°09'0 0.0
2016-Dec-05 05:33N 34°13' E 135°09'0 0.0
2016-Dec-05 04:33N 34°13' E 135°09'0 0.0
2016-Dec-05 03:33N 34°13' E 135°09'0 0.0
2016-Dec-05 02:33N 34°13' E 135°09'0 0.0
2016-Dec-05 01:33N 34°13' E 135°09'0 0.0
2016-Dec-05 00:33N 34°13' E 135°09'0 0.0
2016-Dec-04 23:33N 34°13' E 135°09'0 0.0
2016-Dec-04 22:33N 34°13' E 135°09'0 0.0
2016-Dec-04 21:33N 34°13' E 135°09'0 0.0
2016-Dec-04 20:33N 34°13' E 135°09'0 0.0
2016-Dec-04 19:33N 34°13' E 135°09'0 0.0
2016-Dec-04 18:33N 34°13' E 135°09'0 0.0
2016-Dec-04 17:33N 34°13' E 135°09'0 0.0
2016-Dec-04 16:33N 34°13' E 135°09'0 0.0
2016-Dec-04 15:33N 34°13' E 135°09'0 0.0
2016-Dec-04 14:33N 34°13' E 135°09'0 0.0
2016-Dec-04 13:33N 34°13' E 135°09'0 0.0
2016-Dec-04 12:33N 34°13' E 135°09'0 0.0
2016-Dec-04 11:33N 34°13' E 135°09'0 0.1
2016-Dec-04 10:33N 34°13' E 135°09'15 7.6
2016-Dec-04 08:32N 34°28' E 135°04'9 8.8
2016-Dec-04 07:33N 34°36' E 135°02'2 0.1
2016-Dec-03 01:33N 34°36' E 135°04'6 6.1
2016-Dec-03 00:33N 34°31' E 135°07'1711.4
2016-Dec-02 23:06N 34°15' E 134°59'4 7.2
2016-Dec-02 22:30N 34°11' E 135°01'1111.4
2016-Dec-02 21:32N 34°21' E 135°06'1212.2
2016-Dec-02 20:33N 34°28' E 135°18'9 8.8
2016-Dec-02 19:33N 34°33' E 135°27'0 0.0
2016-Dec-02 18:33N 34°33' E 135°27'0 0.0
2016-Dec-02 17:33N 34°33' E 135°27'0 0.0
2016-Dec-02 16:33N 34°33' E 135°27'0 0.0
2016-Dec-02 15:33N 34°33' E 135°27'0 0.0
2016-Dec-02 14:33N 34°33' E 135°27'0 0.0
2016-Dec-02 13:33N 34°33' E 135°27'0 0.0
2016-Dec-02 09:15N 34°33' E 135°27'0 0.0
2016-Dec-02 08:30N 34°33' E 135°27'0 0.0
2016-Dec-02 07:33N 34°33' E 135°27'0 0.0
2016-Dec-02 06:33N 34°33' E 135°27'0 0.0
2016-Dec-02 05:33N 34°33' E 135°27'0 0.0
2016-Dec-02 04:33N 34°33' E 135°27'0 0.0
2016-Dec-02 03:29N 34°33' E 135°27'0 0.0
2016-Dec-02 02:33N 34°33' E 135°27'0 0.0
2016-Dec-02 01:33N 34°33' E 135°27'0 0.0
2016-Dec-02 00:21N 34°33' E 135°27'0 0.0
2016-Dec-01 23:33N 34°33' E 135°27'0 0.0
2016-Dec-01 22:33N 34°33' E 135°27'0 0.0
2016-Dec-01 21:33N 34°33' E 135°27'0 0.0
2016-Dec-01 20:33N 34°33' E 135°27'0 0.0
2016-Dec-01 19:33N 34°33' E 135°27'0 0.0
2016-Dec-01 18:33N 34°33' E 135°27'0 0.0
2016-Dec-01 17:33N 34°33' E 135°27'0 0.0
2016-Dec-01 16:33N 34°33' E 135°27'0 0.0
2016-Dec-01 15:33N 34°33' E 135°27'0 0.0
2016-Dec-01 14:32N 34°33' E 135°27'0 0.0
2016-Dec-01 13:33N 34°33' E 135°27'0 0.0
2016-Dec-01 12:33N 34°33' E 135°27'0 0.0
2016-Dec-01 11:33N 34°33' E 135°27'0 0.0
2016-Dec-01 10:18N 34°33' E 135°27'0 0.0
2016-Dec-01 09:30N 34°33' E 135°27'0 0.2
2016-Dec-01 08:26N 34°33' E 135°27'2 0.6
2016-Dec-01 04:32N 34°31' E 135°25'2 2.1
2016-Dec-01 03:32N 34°33' E 135°23'3 1.3
2016-Dec-01 01:33N 34°33' E 135°27'0 0.0
2016-Dec-01 00:33N 34°33' E 135°27'0 0.0
2016-Nov-30 23:32N 34°33' E 135°27'0 0.0
2016-Nov-30 22:33N 34°33' E 135°27'0 0.0
2016-Nov-30 21:30N 34°33' E 135°27'0 0.0
2016-Nov-30 11:07N 34°33' E 135°27'2 4.1
2016-Nov-30 10:30N 34°33' E 135°24'2511.5
2016-Nov-30 08:18N 34°15' E 135°02'6 0.8
2016-Nov-30 01:11N 34°09' E 135°01'711.4
2016-Nov-30 00:33N 34°13' E 135°08'1 0.5
2016-Nov-29 23:33N 34°13' E 135°09'0 0.0
2016-Nov-29 22:33N 34°13' E 135°09'0 0.0
2016-Nov-29 21:34N 34°13' E 135°09'0 0.0
2016-Nov-29 20:33N 34°13' E 135°09'0 0.0
2016-Nov-29 19:33N 34°13' E 135°09'0 0.0
2016-Nov-29 18:33N 34°13' E 135°09'0 0.0
2016-Nov-29 17:33N 34°13' E 135°09'0 0.0
2016-Nov-29 16:33N 34°13' E 135°09'0 0.0
2016-Nov-29 15:33N 34°13' E 135°09'0 0.0
2016-Nov-29 14:33N 34°13' E 135°09'0 0.0
2016-Nov-29 13:33N 34°13' E 135°09'0 0.0
2016-Nov-29 12:33N 34°13' E 135°09'0 0.0
2016-Nov-29 11:33N 34°13' E 135°09'0 0.0
2016-Nov-29 10:33N 34°13' E 135°09'0 0.0
2016-Nov-29 09:33N 34°13' E 135°09'2 1.7
2016-Nov-29 08:33N 34°13' E 135°07'15 9.9
2016-Nov-29 07:06N 34°27' E 135°04'712.3
2016-Nov-29 06:33N 34°34' E 135°06'9 0.3
2016-Nov-28 03:27N 34°37' E 134°56'9 9.6
2016-Nov-28 02:33N 34°35' E 135°06'20 9.3
2016-Nov-28 00:23N 34°15' E 134°59'5 6.3
2016-Nov-27 23:33N 34°10' E 135°00'9 9.2
2016-Nov-27 22:33N 34°19' E 135°04'1211.7
2016-Nov-27 21:32N 34°25' E 135°16'1111.5
2016-Nov-27 20:33N 34°33' E 135°26'0 0.4
2016-Nov-27 19:33N 34°33' E 135°27'0 0.0
2016-Nov-27 11:28N 34°33' E 135°27'0 0.0
2016-Nov-27 10:32N 34°33' E 135°27'0 0.0
2016-Nov-27 09:33N 34°33' E 135°27'0 0.0
2016-Nov-27 08:33N 34°33' E 135°27'0 0.0
2016-Nov-27 07:33N 34°33' E 135°27'0 0.0
2016-Nov-27 06:33N 34°33' E 135°27'1 0.6
2016-Nov-27 05:33N 34°33' E 135°26'3 3.1
2016-Nov-27 04:33N 34°32' E 135°23'1 0.6
2016-Nov-27 03:33N 34°32' E 135°23'3 1.5
2016-Nov-27 01:31N 34°33' E 135°27'0 0.0
2016-Nov-26 23:13N 34°33' E 135°27'0 0.0
2016-Nov-26 22:33N 34°33' E 135°27'0 0.0
2016-Nov-26 21:32N 34°33' E 135°27'0 0.0
2016-Nov-26 20:31N 34°33' E 135°27'0 0.0
2016-Nov-26 19:33N 34°33' E 135°27'0 0.0
2016-Nov-26 18:33N 34°33' E 135°27'0 0.0
2016-Nov-26 17:32N 34°33' E 135°27'0 0.0
2016-Nov-26 16:33N 34°33' E 135°27'0 0.0
2016-Nov-26 15:26N 34°33' E 135°27'0 0.0
2016-Nov-26 14:20N 34°33' E 135°27'0 0.1
2016-Nov-26 06:33N 34°33' E 135°26'0 0.1
2016-Nov-26 05:33N 34°33' E 135°26'3 3.1
2016-Nov-26 04:33N 34°33' E 135°22'4 3.7
2016-Nov-26 03:33N 34°34' E 135°18'7 0.8
2016-Nov-25 18:27N 34°33' E 135°27'0 0.0
2016-Nov-25 17:33N 34°33' E 135°27'0 0.0
2016-Nov-25 16:33N 34°33' E 135°27'0 0.0
2016-Nov-25 15:32N 34°33' E 135°27'0 0.0
2016-Nov-25 14:33N 34°33' E 135°27'  

Dump ship's entire track history